Time;durP1;ratioP1;P1;durP2;ratioP2;P2;SDS_P1;SDS_P2;PMS_P1;PMS_P2;Temp;Humidity;BMP_temperature;BMP_pressure;BME280_temperature;BME280_humidity;BME280_pressure;Samples;Min_cycle;Max_cycle;Signal;HPM_P1;HPM_P2
2022/07/29 00:01:43;;;;;;;5.38;1.27;;;13.60;99.90;;;;;;5031447;28;20040;-74
2022/07/29 00:04:09;;;;;;;2.60;1.20;;;13.60;99.90;;;;;;5047668;23;20041;-84
2022/07/29 00:06:34;;;;;;;2.65;1.20;;;13.50;99.90;;;;;;5011172;28;20083;-84
2022/07/29 00:09:00;;;;;;;3.15;1.25;;;13.40;99.90;;;;;;5013386;28;20030;-84
2022/07/29 00:11:26;;;;;;;6.60;1.10;;;13.30;99.90;;;;;;5011675;28;20395;-84
2022/07/29 00:13:51;;;;;;;4.95;1.23;;;13.40;99.90;;;;;;5013219;28;20420;-84
2022/07/29 00:16:17;;;;;;;3.45;1.77;;;13.40;99.90;;;;;;5012566;28;20034;-84
2022/07/29 00:18:43;;;;;;;5.15;1.23;;;13.40;99.90;;;;;;5011756;28;20036;-84
2022/07/29 00:21:09;;;;;;;2.95;1.17;;;13.30;99.90;;;;;;5009154;28;20040;-84
2022/07/29 00:23:35;;;;;;;1.95;1.10;;;13.20;99.90;;;;;;5011809;28;20021;-84
2022/07/29 00:26:00;;;;;;;4.68;1.50;;;13.10;99.90;;;;;;5012277;28;20026;-84
2022/07/29 00:28:26;;;;;;;4.53;1.70;;;13.00;99.90;;;;;;5012494;28;20030;-83
2022/07/29 00:30:52;;;;;;;2.50;1.00;;;12.90;99.90;;;;;;5012677;28;20029;-83
2022/07/29 00:33:18;;;;;;;3.83;1.80;;;12.90;99.90;;;;;;5012159;28;20438;-84
2022/07/29 00:35:43;;;;;;;2.63;1.05;;;12.80;99.90;;;;;;5016144;28;20035;-84
2022/07/29 00:38:13;;;;;;;5.35;1.58;;;12.80;99.90;;;;;;5013034;28;20048;-83
2022/07/29 00:40:39;;;;;;;4.13;1.17;;;12.80;99.90;;;;;;5012453;28;20128;-83
2022/07/29 00:43:05;;;;;;;3.47;1.20;;;12.70;99.90;;;;;;5012311;28;20280;-83
2022/07/29 00:45:31;;;;;;;2.90;1.27;;;12.70;99.90;;;;;;5011274;28;20456;-84
2022/07/29 00:47:56;;;;;;;3.28;1.25;;;12.60;99.90;;;;;;5010188;28;20087;-84
2022/07/29 00:50:23;;;;;;;3.30;1.35;;;12.50;99.90;;;;;;5012503;28;20106;-84
2022/07/29 00:52:48;;;;;;;2.25;1.52;;;12.50;99.90;;;;;;5011059;28;20117;-83
2022/07/29 00:55:15;;;;;;;1.98;1.33;;;12.40;99.90;;;;;;5012100;28;20101;-84
2022/07/29 00:57:43;;;;;;;6.07;1.95;;;12.30;99.90;;;;;;5011667;28;20439;-84
2022/07/29 01:00:12;;;;;;;2.53;1.50;;;12.30;99.90;;;;;;5010040;28;20057;-83
2022/07/29 01:02:38;;;;;;;7.28;1.42;;;12.30;99.90;;;;;;5011918;28;20096;-83
2022/07/29 01:05:05;;;;;;;1.17;1.08;;;12.30;99.90;;;;;;5037301;23;20068;-74
2022/07/29 01:07:36;;;;;;;5.63;1.40;;;12.30;99.90;;;;;;5011857;28;20053;-74
2022/07/29 01:10:06;;;;;;;1.97;1.33;;;12.20;99.90;;;;;;5010625;28;20050;-74
2022/07/29 01:12:34;;;;;;;2.75;1.60;;;12.20;99.90;;;;;;5012313;28;20095;-74
2022/07/29 01:15:01;;;;;;;1.90;1.25;;;12.20;99.90;;;;;;5011903;28;20033;-74
2022/07/29 01:17:29;;;;;;;1.95;1.25;;;12.10;99.90;;;;;;5012479;28;20026;-74
2022/07/29 01:20:14;;;;;;;1.65;1.10;;;12.10;99.90;;;;;;5011977;28;20475;-74
2022/07/29 01:23:13;;;;;;;2.05;1.20;;;12.00;99.90;;;;;;5010033;28;20026;-74
2022/07/29 01:25:54;;;;;;;2.70;1.30;;;12.10;99.90;;;;;;5006163;28;20491;-74
2022/07/29 01:28:39;;;;;;;2.05;1.67;;;12.00;99.90;;;;;;5005647;28;20029;-74
2022/07/29 01:31:07;;;;;;;5.18;1.63;;;12.00;99.90;;;;;;5005639;28;20029;-74
2022/07/29 01:33:50;;;;;;;2.70;1.33;;;12.00;99.90;;;;;;5011293;28;20025;-75
2022/07/29 01:36:48;;;;;;;3.92;1.38;;;12.00;99.90;;;;;;5011027;28;20483;-74
2022/07/29 01:39:22;;;;;;;2.28;1.10;;;11.90;99.90;;;;;;5002640;28;20029;-74
2022/07/29 01:42:17;;;;;;;2.13;1.63;;;12.00;99.90;;;;;;5011413;28;20489;-74
2022/07/29 01:44:56;;;;;;;5.05;1.65;;;12.00;99.90;;;;;;5005341;28;20105;-74
2022/07/29 01:47:26;;;;;;;2.78;1.30;;;12.00;99.90;;;;;;5005148;28;20030;-74
2022/07/29 01:50:15;;;;;;;5.05;1.77;;;12.00;99.90;;;;;;5011286;28;20105;-75
2022/07/29 01:52:55;;;;;;;1.70;1.48;;;12.10;99.90;;;;;;5011194;28;20145;-74
2022/07/29 01:55:26;;;;;;;2.50;1.45;;;12.10;99.90;;;;;;5011393;28;20094;-74
2022/07/29 01:57:53;;;;;;;10.07;1.63;;;12.00;99.90;;;;;;5009703;28;20068;-74
2022/07/29 02:00:21;;;;;;;2.58;1.60;;;12.10;99.90;;;;;;5010212;28;20014;-74
2022/07/29 02:02:48;;;;;;;1.42;1.15;;;12.20;99.90;;;;;;5011036;28;20018;-74
2022/07/29 02:05:17;;;;;;;3.97;1.40;;;12.10;99.90;;;;;;5063105;23;20057;-84
2022/07/29 02:07:45;;;;;;;2.78;1.40;;;12.20;99.90;;;;;;5050134;28;20035;-83
2022/07/29 02:10:12;;;;;;;6.65;1.48;;;12.30;99.90;;;;;;5050486;28;20171;-83
2022/07/29 02:12:40;;;;;;;2.00;1.45;;;12.40;99.90;;;;;;5049208;28;20489;-84
2022/07/29 02:15:07;;;;;;;7.30;1.50;;;12.50;99.90;;;;;;5050318;28;20021;-84
2022/07/29 02:17:40;;;;;;;4.13;2.47;;;12.40;99.90;;;;;;5050663;28;20128;-83
2022/07/29 02:20:08;;;;;;;3.25;1.30;;;12.40;99.90;;;;;;5041773;28;20146;-83
2022/07/29 02:22:37;;;;;;;3.97;1.35;;;12.40;99.90;;;;;;5050078;28;20021;-84
2022/07/29 02:25:04;;;;;;;3.45;1.27;;;12.40;99.90;;;;;;5050118;28;20047;-84
2022/07/29 02:27:33;;;;;;;5.30;1.55;;;12.40;99.90;;;;;;5050301;28;20029;-83
2022/07/29 02:30:02;;;;;;;4.13;1.67;;;12.40;99.90;;;;;;5050073;28;20131;-83
2022/07/29 02:32:29;;;;;;;1.50;1.33;;;12.50;99.90;;;;;;5049666;28;20521;-84
2022/07/29 02:34:56;;;;;;;2.92;2.05;;;12.50;99.90;;;;;;5049344;28;20033;-84
2022/07/29 02:37:23;;;;;;;4.15;1.48;;;12.50;99.90;;;;;;5041841;28;20087;-84
2022/07/29 02:39:52;;;;;;;1.88;1.38;;;12.60;99.90;;;;;;5047978;28;20028;-84
2022/07/29 02:42:18;;;;;;;2.47;1.25;;;12.70;99.90;;;;;;5049776;28;20070;-84
2022/07/29 02:44:44;;;;;;;3.38;1.30;;;12.80;99.90;;;;;;5049953;28;20044;-84
2022/07/29 02:47:24;;;;;;;4.50;1.70;;;12.90;99.90;;;;;;5050108;28;20052;-84
2022/07/29 02:50:04;;;;;;;1.92;1.58;;;12.90;99.90;;;;;;5049599;28;20017;-84
2022/07/29 02:52:43;;;;;;;5.43;1.60;;;12.90;99.90;;;;;;5048835;28;20033;-84
2022/07/29 02:55:29;;;;;;;2.55;1.00;;;12.80;99.90;;;;;;5049721;28;20021;-84
2022/07/29 02:58:00;;;;;;;2.70;1.67;;;12.80;99.90;;;;;;5049659;28;20027;-84
2022/07/29 03:00:34;;;;;;;1.83;1.25;;;12.80;99.90;;;;;;5048176;28;20024;-84
2022/07/29 03:03:03;;;;;;;6.57;1.75;;;12.70;99.90;;;;;;5048884;28;20104;-84
2022/07/29 03:05:30;;;;;;;3.28;1.40;;;12.70;99.90;;;;;;5041303;23;20046;-74
2022/07/29 03:08:03;;;;;;;2.88;1.80;;;12.60;99.90;;;;;;5008884;28;20030;-75
2022/07/29 03:10:30;;;;;;;3.88;1.35;;;12.50;99.90;;;;;;5010173;28;20076;-74
2022/07/29 03:12:57;;;;;;;6.10;1.75;;;12.50;99.90;;;;;;5014350;28;20058;-74
2022/07/29 03:15:24;;;;;;;1.83;1.17;;;12.40;99.90;;;;;;5013959;28;20561;-74
2022/07/29 03:17:51;;;;;;;2.13;1.58;;;12.40;99.90;;;;;;5014533;28;20018;-74
2022/07/29 03:20:17;;;;;;;3.95;1.30;;;12.30;99.90;;;;;;5014350;28;20052;-74
2022/07/29 03:22:46;;;;;;;1.77;1.45;;;12.30;99.90;;;;;;5013962;28;20024;-74
2022/07/29 03:25:17;;;;;;;2.78;1.60;;;12.30;99.90;;;;;;5013417;28;20033;-74
2022/07/29 03:27:43;;;;;;;4.30;1.58;;;12.40;99.90;;;;;;5013397;28;20018;-74
2022/07/29 03:30:10;;;;;;;2.13;1.75;;;12.40;99.90;;;;;;5013660;28;20048;-75
2022/07/29 03:32:36;;;;;;;3.13;1.67;;;12.50;99.90;;;;;;5014126;28;20076;-74
2022/07/29 03:35:03;;;;;;;4.05;1.73;;;12.50;99.90;;;;;;5012221;28;20021;-74
2022/07/29 03:37:30;;;;;;;3.10;1.50;;;12.50;99.90;;;;;;5014222;28;20030;-74
2022/07/29 03:39:57;;;;;;;4.70;1.60;;;12.40;99.90;;;;;;5014055;28;20064;-74
2022/07/29 03:42:25;;;;;;;2.03;1.40;;;12.30;99.90;;;;;;5013685;28;20517;-74
2022/07/29 03:44:53;;;;;;;2.15;1.38;;;12.30;99.90;;;;;;5013468;28;20022;-74
2022/07/29 03:47:23;;;;;;;2.08;1.50;;;12.20;99.90;;;;;;5013472;28;20088;-74
2022/07/29 03:49:51;;;;;;;4.22;1.48;;;12.00;99.90;;;;;;5012982;28;20033;-74
2022/07/29 03:52:17;;;;;;;1.52;1.23;;;12.00;99.90;;;;;;5013827;28;20387;-74
2022/07/29 03:54:43;;;;;;;3.25;1.45;;;12.00;99.90;;;;;;5013663;28;20022;-74
2022/07/29 03:57:11;;;;;;;3.03;1.67;;;12.00;99.90;;;;;;5013570;28;20558;-74
2022/07/29 03:59:37;;;;;;;3.63;1.45;;;12.00;99.90;;;;;;5012783;28;20026;-75
2022/07/29 04:02:05;;;;;;;2.03;1.50;;;11.90;99.90;;;;;;5013374;28;20072;-74
2022/07/29 04:04:35;;;;;;;3.65;1.70;;;11.90;99.90;;;;;;5031693;23;20042;-84
2022/07/29 04:07:01;;;;;;;2.15;1.48;;;12.00;99.90;;;;;;5011185;28;20654;-84
2022/07/29 04:09:27;;;;;;;6.57;1.58;;;12.10;99.90;;;;;;5011724;28;20475;-84
2022/07/29 04:11:53;;;;;;;2.78;1.63;;;12.10;99.90;;;;;;5012825;28;20017;-84
2022/07/29 04:14:18;;;;;;;2.95;1.60;;;12.10;99.90;;;;;;5012812;28;20022;-84
2022/07/29 04:16:44;;;;;;;4.72;1.48;;;12.10;99.90;;;;;;5011969;28;20033;-84
2022/07/29 04:19:10;;;;;;;5.85;1.90;;;12.00;99.90;;;;;;5013144;28;20475;-84
2022/07/29 04:21:45;;;;;;;3.90;1.90;;;12.10;99.90;;;;;;5010462;28;20041;-84
2022/07/29 04:24:10;;;;;;;3.25;1.83;;;12.10;99.90;;;;;;5012085;28;20417;-84
2022/07/29 04:26:37;;;;;;;3.08;1.45;;;12.00;99.90;;;;;;5012688;28;20030;-85
2022/07/29 04:29:02;;;;;;;1.85;1.52;;;12.00;99.90;;;;;;5011133;28;20073;-84
2022/07/29 04:31:28;;;;;;;6.65;1.95;;;12.00;99.90;;;;;;5010889;28;20030;-83
2022/07/29 04:33:54;;;;;;;3.60;1.75;;;12.00;99.90;;;;;;5012612;28;20045;-84
2022/07/29 04:36:20;;;;;;;2.95;2.40;;;12.10;99.90;;;;;;5012345;28;20108;-84
2022/07/29 04:38:45;;;;;;;5.70;2.30;;;12.00;99.90;;;;;;5012250;28;20091;-84
2022/07/29 04:41:11;;;;;;;3.25;1.75;;;12.10;99.90;;;;;;5012528;28;20038;-84
2022/07/29 04:43:37;;;;;;;4.72;1.67;;;12.10;99.90;;;;;;5010890;28;20543;-84
2022/07/29 04:46:03;;;;;;;3.50;2.05;;;12.20;99.90;;;;;;5010883;28;20022;-84
2022/07/29 04:48:29;;;;;;;2.65;1.45;;;12.30;99.90;;;;;;5012191;28;20029;-84
2022/07/29 04:50:56;;;;;;;3.13;1.92;;;12.50;99.90;;;;;;5011492;28;20541;-84
2022/07/29 04:53:22;;;;;;;3.05;2.35;;;12.70;99.90;;;;;;5012197;28;20029;-84
2022/07/29 04:55:47;;;;;;;4.90;1.75;;;13.00;99.90;;;;;;5012229;28;20096;-84
2022/07/29 04:58:13;;;;;;;3.58;1.58;;;13.10;99.90;;;;;;5012176;28;20411;-84
2022/07/29 05:00:40;;;;;;;4.00;2.13;;;13.40;99.90;;;;;;5016611;28;20068;-84
2022/07/29 05:03:06;;;;;;;4.05;2.03;;;13.60;99.90;;;;;;5012006;28;20072;-84
2022/07/29 05:05:32;;;;;;;9.00;2.00;;;13.70;99.90;;;;;;5050123;22;20073;-74
2022/07/29 05:07:58;;;;;;;5.78;2.10;;;13.90;99.90;;;;;;5032123;28;20034;-74
2022/07/29 05:10:24;;;;;;;5.70;1.58;;;14.10;99.90;;;;;;5032412;28;20471;-74
2022/07/29 05:12:50;;;;;;;2.72;1.40;;;14.10;99.90;;;;;;5032007;28;20028;-74
2022/07/29 05:15:17;;;;;;;2.13;1.45;;;14.30;99.90;;;;;;5031890;28;20041;-75
2022/07/29 05:17:43;;;;;;;3.90;1.83;;;14.40;99.90;;;;;;5032076;28;20033;-74
2022/07/29 05:20:09;;;;;;;3.45;1.60;;;14.50;99.90;;;;;;5031652;28;20030;-74
2022/07/29 05:22:35;;;;;;;2.47;1.27;;;14.70;99.90;;;;;;5031502;28;20034;-74
2022/07/29 05:25:01;;;;;;;5.50;1.85;;;14.80;99.90;;;;;;5031400;28;20025;-75
2022/07/29 05:27:26;;;;;;;4.63;1.65;;;14.80;99.90;;;;;;5031651;28;20493;-74
2022/07/29 05:29:52;;;;;;;3.08;1.30;;;14.90;99.90;;;;;;5031715;28;20482;-74
2022/07/29 05:32:18;;;;;;;3.88;1.50;;;15.00;99.90;;;;;;5031287;28;20013;-74
2022/07/29 05:34:43;;;;;;;1.80;1.50;;;15.00;99.90;;;;;;5030486;28;20009;-74
2022/07/29 05:37:09;;;;;;;5.45;1.80;;;15.00;99.90;;;;;;5031510;28;20068;-74
2022/07/29 05:39:35;;;;;;;2.00;1.52;;;15.10;99.90;;;;;;5031478;28;20048;-74
2022/07/29 05:42:01;;;;;;;1.40;1.30;;;15.10;99.90;;;;;;5031372;28;20040;-74
2022/07/29 05:44:26;;;;;;;4.55;1.70;;;15.10;99.90;;;;;;5031170;28;20029;-75
2022/07/29 05:46:52;;;;;;;4.55;1.58;;;15.20;99.90;;;;;;5031170;28;20525;-75
2022/07/29 05:49:18;;;;;;;4.50;1.30;;;15.20;99.90;;;;;;5031117;28;20022;-74
2022/07/29 05:51:44;;;;;;;1.30;1.20;;;15.30;99.90;;;;;;5031467;28;20478;-74
2022/07/29 05:54:10;;;;;;;1.45;1.33;;;15.30;99.90;;;;;;5031145;28;20474;-74
2022/07/29 05:56:37;;;;;;;2.30;1.45;;;15.40;99.90;;;;;;5031286;28;20025;-74
2022/07/29 05:59:03;;;;;;;2.63;1.40;;;15.50;99.90;;;;;;5030986;28;20462;-74
2022/07/29 06:01:28;;;;;;;5.50;1.65;;;15.70;99.90;;;;;;5029826;28;20044;-73
2022/07/29 06:03:54;;;;;;;1.88;1.48;;;15.80;99.90;;;;;;5054893;23;20005;-84
2022/07/29 06:06:20;;;;;;;4.50;1.65;;;15.90;99.90;;;;;;5011827;28;20475;-84
2022/07/29 06:08:46;;;;;;;1.98;1.40;;;16.00;99.90;;;;;;4991281;28;20022;-84
2022/07/29 06:11:11;;;;;;;2.97;1.20;;;16.10;99.90;;;;;;4990598;28;20472;-83
2022/07/29 06:13:37;;;;;;;4.80;1.83;;;16.20;99.90;;;;;;4991386;28;20038;-84
2022/07/29 06:16:03;;;;;;;2.50;1.55;;;16.20;99.90;;;;;;4991427;28;20383;-84
2022/07/29 06:18:29;;;;;;;1.42;1.33;;;16.30;99.90;;;;;;4991706;28;20025;-83
2022/07/29 06:20:55;;;;;;;4.13;1.48;;;16.30;99.90;;;;;;4991001;28;20038;-84
2022/07/29 06:23:21;;;;;;;3.53;1.70;;;16.30;99.90;;;;;;4990649;28;20037;-83
2022/07/29 06:25:48;;;;;;;4.68;1.80;;;16.30;99.90;;;;;;4989850;28;20399;-83
2022/07/29 06:28:14;;;;;;;4.15;1.30;;;16.20;99.90;;;;;;4991229;28;20015;-83
2022/07/29 06:30:39;;;;;;;3.50;1.58;;;16.20;99.90;;;;;;4989821;28;20034;-83
2022/07/29 06:33:05;;;;;;;5.30;1.50;;;16.20;99.90;;;;;;4990726;28;20623;-84
2022/07/29 06:35:35;;;;;;;2.42;1.30;;;16.30;99.90;;;;;;4989010;28;20030;-83
2022/07/29 06:38:01;;;;;;;3.72;1.40;;;16.40;99.90;;;;;;4990321;28;20030;-84
2022/07/29 06:43:11;;;;;;;3.78;1.48;;;16.40;99.90;;;;;;4986645;28;20026;-83
2022/07/29 06:45:40;;;;;;;4.18;1.65;;;16.60;99.90;;;;;;4990212;28;20035;-83
2022/07/29 06:48:06;;;;;;;3.90;1.20;;;16.80;99.90;;;;;;4990861;28;20383;-83
2022/07/29 06:50:32;;;;;;;3.50;1.73;;;17.00;99.90;;;;;;4990714;28;20168;-83
2022/07/29 06:52:57;;;;;;;2.53;1.00;;;17.20;99.90;;;;;;4989647;28;20476;-83
2022/07/29 06:55:24;;;;;;;4.15;1.60;;;17.40;99.90;;;;;;4990987;28;20092;-84
2022/07/29 06:57:50;;;;;;;1.67;1.10;;;17.70;99.90;;;;;;4989673;28;20073;-83
2022/07/29 07:00:16;;;;;;;3.58;1.33;;;17.90;99.90;;;;;;4989934;28;20077;-83
2022/07/29 07:02:42;;;;;;;5.28;1.27;;;18.00;99.90;;;;;;4990808;28;20488;-82
2022/07/29 07:05:07;;;;;;;4.57;1.45;;;18.20;99.90;;;;;;5024293;23;20526;-74
2022/07/29 07:07:33;;;;;;;4.40;1.33;;;18.30;99.90;;;;;;5009477;28;20415;-74
2022/07/29 07:09:59;;;;;;;2.50;1.17;;;18.40;99.90;;;;;;5008945;28;20494;-74
2022/07/29 07:12:25;;;;;;;5.32;1.40;;;18.60;99.90;;;;;;5010277;28;20026;-75
2022/07/29 07:14:51;;;;;;;3.08;1.25;;;18.70;99.90;;;;;;5010697;28;20018;-74
2022/07/29 07:17:16;;;;;;;4.93;1.70;;;18.90;99.90;;;;;;5010404;28;20080;-74
2022/07/29 07:19:42;;;;;;;2.63;1.55;;;19.00;99.90;;;;;;5010186;28;20383;-75
2022/07/29 07:22:08;;;;;;;2.38;1.20;;;19.20;99.90;;;;;;5010171;28;20034;-74
2022/07/29 07:24:33;;;;;;;4.63;1.38;;;19.30;99.90;;;;;;5009831;28;20101;-75
2022/07/29 07:26:59;;;;;;;2.08;1.35;;;19.40;99.90;;;;;;5010259;28;20041;-74
2022/07/29 07:29:25;;;;;;;7.22;1.50;;;19.50;99.90;;;;;;5010058;28;20026;-75
2022/07/29 07:31:51;;;;;;;2.85;1.65;;;19.70;99.90;;;;;;5009968;28;20030;-75
2022/07/29 07:34:16;;;;;;;4.65;1.60;;;19.80;99.90;;;;;;5009436;28;20375;-75
2022/07/29 07:36:42;;;;;;;2.38;1.27;;;20.00;99.90;;;;;;5009442;28;20026;-75
2022/07/29 07:39:08;;;;;;;2.55;1.00;;;20.10;99.90;;;;;;5009656;28;20498;-75
2022/07/29 07:41:34;;;;;;;4.88;1.55;;;20.20;99.90;;;;;;5009545;28;20117;-74
2022/07/29 07:43:59;;;;;;;3.38;1.10;;;20.20;99.90;;;;;;5009528;28;20022;-75
2022/07/29 07:46:25;;;;;;;1.90;0.80;;;20.30;99.90;;;;;;5009352;28;20021;-75
2022/07/29 07:48:52;;;;;;;2.42;1.05;;;20.50;99.90;;;;;;5009204;28;20022;-74
2022/07/29 07:51:18;;;;;;;2.22;1.45;;;20.70;99.90;;;;;;5009526;28;20018;-75
2022/07/29 07:53:44;;;;;;;3.03;1.00;;;20.80;99.90;;;;;;5009915;28;20513;-74
2022/07/29 07:56:10;;;;;;;2.42;1.25;;;20.90;99.90;;;;;;5010158;28;20026;-74
2022/07/29 07:58:36;;;;;;;3.65;1.40;;;21.00;99.90;;;;;;5013341;28;20037;-74
2022/07/29 08:01:02;;;;;;;3.50;1.00;;;21.10;99.90;;;;;;5011944;28;20026;-74
2022/07/29 08:03:28;;;;;;;2.92;1.13;;;21.40;99.90;;;;;;5013382;28;20026;-74
2022/07/29 08:05:54;;;;;;;2.88;1.20;;;21.60;99.90;;;;;;5013666;28;20145;-74
2022/07/29 08:08:20;;;;;;;2.55;1.30;;;21.60;99.90;;;;;;5010332;28;20069;-74
2022/07/29 08:10:52;;;;;;;3.95;1.30;;;21.70;99.90;;;;;;5013722;28;20441;-74
2022/07/29 08:13:23;;;;;;;1.20;1.10;;;21.80;99.90;;;;;;5012210;28;20041;-74
2022/07/29 08:15:57;;;;;;;3.87;1.60;;;22.00;99.90;;;;;;5007010;28;20032;-74
2022/07/29 08:18:24;;;;;;;2.45;1.00;;;22.20;99.70;;;;;;5013211;28;20272;-75
2022/07/29 08:20:50;;;;;;;3.72;1.10;;;22.40;98.70;;;;;;5012995;28;20046;-75
2022/07/29 08:23:16;;;;;;;3.28;1.85;;;22.50;96.40;;;;;;5013346;28;20032;-74
2022/07/29 08:25:41;;;;;;;4.80;1.27;;;22.70;93.50;;;;;;5012373;28;20503;-74
2022/07/29 08:28:07;;;;;;;2.65;1.05;;;22.80;97.20;;;;;;5013248;28;20022;-74
2022/07/29 08:30:33;;;;;;;2.80;0.98;;;22.70;87.70;;;;;;5013195;28;20018;-74
2022/07/29 08:32:59;;;;;;;2.92;1.25;;;22.90;90.20;;;;;;5012938;28;20116;-75
2022/07/29 08:35:25;;;;;;;2.50;1.25;;;22.90;86.60;;;;;;5012748;23;20180;-84
2022/07/29 08:37:51;;;;;;;3.22;0.93;;;22.90;88.00;;;;;;4974825;28;20019;-84
2022/07/29 08:40:18;;;;;;;3.30;1.10;;;23.10;84.50;;;;;;4974963;28;20062;-83
2022/07/29 08:42:43;;;;;;;1.40;1.05;;;22.70;78.20;;;;;;4982941;28;20093;-83
2022/07/29 08:45:09;;;;;;;1.45;1.00;;;22.70;85.80;;;;;;4985703;28;20026;-84
2022/07/29 08:47:39;;;;;;;4.85;1.30;;;22.90;77.80;;;;;;4987562;28;20033;-83
2022/07/29 08:50:09;;;;;;;3.13;1.33;;;23.10;77.00;;;;;;4992887;28;20018;-84
2022/07/29 08:52:37;;;;;;;1.48;1.20;;;23.60;71.10;;;;;;4990673;28;20109;-85
2022/07/29 08:55:05;;;;;;;4.03;1.35;;;24.40;66.70;;;;;;4990952;28;20105;-84
2022/07/29 08:57:32;;;;;;;3.10;1.25;;;24.40;64.60;;;;;;4993003;28;20502;-81
2022/07/29 09:00:00;;;;;;;4.43;1.67;;;24.90;64.10;;;;;;4992638;28;20022;-81
2022/07/29 09:02:29;;;;;;;3.75;1.20;;;25.80;54.40;;;;;;4988583;28;20086;-80
2022/07/29 09:04:58;;;;;;;6.20;1.83;;;26.60;52.10;;;;;;4988581;28;20014;-81
2022/07/29 09:07:24;;;;;;;2.72;0.60;;;26.50;48.50;;;;;;4986595;28;20030;-81
2022/07/29 09:09:50;;;;;;;2.40;0.85;;;27.20;48.20;;;;;;4991628;28;20030;-81
2022/07/29 09:12:16;;;;;;;1.58;0.70;;;27.70;46.40;;;;;;4987058;28;20551;-81
2022/07/29 09:14:42;;;;;;;4.07;1.80;;;28.40;48.30;;;;;;4988628;28;20015;-81
2022/07/29 09:17:08;;;;;;;2.38;0.90;;;29.40;45.00;;;;;;4990771;28;20380;-82
2022/07/29 09:19:35;;;;;;;3.50;0.90;;;30.50;43.70;;;;;;4980163;28;20038;-84
2022/07/29 09:22:04;;;;;;;1.88;0.90;;;31.10;37.90;;;;;;4984506;28;20026;-83
2022/07/29 09:24:37;;;;;;;1.63;0.70;;;31.20;37.40;;;;;;4977324;28;20411;-83
2022/07/29 09:27:10;;;;;;;1.25;0.73;;;30.00;39.10;;;;;;4992420;28;20049;-82
2022/07/29 09:29:37;;;;;;;1.70;1.05;;;30.70;39.80;;;;;;4992520;28;20022;-83
2022/07/29 09:32:08;;;;;;;2.03;0.63;;;30.40;38.10;;;;;;4991894;28;20034;-83
2022/07/29 09:34:35;;;;;;;3.30;1.08;;;30.80;37.90;;;;;;5020752;23;20061;-76
2022/07/29 09:37:01;;;;;;;2.40;1.10;;;31.50;37.90;;;;;;5015218;28;20026;-75
2022/07/29 09:39:45;;;;;;;2.17;0.60;;;31.90;37.50;;;;;;5012224;28;20022;-76
2022/07/29 09:42:11;;;;;;;1.58;0.80;;;33.30;35.40;;;;;;5011893;28;20014;-75
2022/07/29 09:44:50;;;;;;;2.50;0.80;;;33.80;29.90;;;;;;5010362;28;20025;-76
2022/07/29 09:47:18;;;;;;;2.42;0.90;;;33.70;31.70;;;;;;5009362;28;20029;-76
2022/07/29 09:49:58;;;;;;;2.55;0.70;;;34.10;32.30;;;;;;5011681;28;20033;-76
2022/07/29 09:52:25;;;;;;;2.45;0.60;;;34.70;30.60;;;;;;5011761;28;20103;-76
2022/07/29 09:54:51;;;;;;;0.77;0.40;;;35.60;28.60;;;;;;5011497;28;20129;-76
2022/07/29 09:57:35;;;;;;;1.75;0.50;;;35.90;26.10;;;;;;5011342;28;20538;-76
2022/07/29 10:00:06;;;;;;;0.98;0.40;;;35.80;28.10;;;;;;5010828;28;20030;-76
2022/07/29 10:02:33;;;;;;;2.22;0.40;;;36.40;27.40;;;;;;5011257;28;20033;-76
2022/07/29 10:05:01;;;;;;;0.95;0.40;;;35.50;25.10;;;;;;5011733;28;20113;-76
2022/07/29 10:07:42;;;;;;;2.65;0.65;;;35.10;26.90;;;;;;5011657;28;20080;-76
2022/07/29 10:10:08;;;;;;;0.95;0.45;;;35.00;26.00;;;;;;5011285;28;20053;-76
2022/07/29 10:12:34;;;;;;;3.08;0.60;;;35.30;26.50;;;;;;5011413;28;20072;-76
2022/07/29 10:15:02;;;;;;;2.53;0.75;;;35.80;28.70;;;;;;5010257;28;20026;-76
2022/07/29 10:17:28;;;;;;;2.17;0.52;;;35.70;26.10;;;;;;5011245;28;20022;-75
2022/07/29 10:19:55;;;;;;;1.25;0.60;;;36.40;28.40;;;;;;5010554;28;20130;-75
2022/07/29 10:22:21;;;;;;;2.42;0.40;;;37.10;26.00;;;;;;5011212;28;20022;-76
2022/07/29 10:24:48;;;;;;;2.95;0.70;;;37.80;27.50;;;;;;5009783;28;20018;-76
2022/07/29 10:27:13;;;;;;;2.15;0.60;;;37.90;25.70;;;;;;5011094;28;20026;-76
2022/07/29 10:29:39;;;;;;;1.88;0.50;;;37.60;25.30;;;;;;5011284;28;20080;-76
2022/07/29 10:32:25;;;;;;;2.03;0.50;;;37.80;24.80;;;;;;5010960;28;20101;-76
2022/07/29 10:35:07;;;;;;;1.05;0.60;;;38.40;25.40;;;;;;5041354;23;20080;-84
2022/07/29 10:37:57;;;;;;;1.35;0.70;;;39.10;25.70;;;;;;5043639;28;20021;-83
2022/07/29 10:43:35;;;;;;;0.90;0.30;;;38.70;23.80;;;;;;5046016;28;20175;-83
2022/07/29 10:46:02;;;;;;;0.80;0.40;;;38.30;24.40;;;;;;5046028;28;20021;-83
2022/07/29 10:48:28;;;;;;;4.55;0.52;;;38.60;25.50;;;;;;5042722;28;20124;-82
2022/07/29 10:51:03;;;;;;;0.43;0.40;;;38.70;23.90;;;;;;5050231;28;20126;-83
2022/07/29 10:53:48;;;;;;;1.50;0.50;;;39.30;23.80;;;;;;5050188;28;20020;-83
2022/07/29 10:56:30;;;;;;;3.30;0.52;;;39.50;23.20;;;;;;5050107;28;20017;-84
2022/07/29 10:59:18;;;;;;;8.98;2.67;;;39.80;24.00;;;;;;5050394;28;20025;-83
2022/07/29 11:01:45;;;;;;;0.93;0.30;;;39.80;23.40;;;;;;5049098;28;20025;-83
2022/07/29 11:04:11;;;;;;;1.38;0.22;;;40.70;23.00;;;;;;5050453;28;20021;-81
2022/07/29 11:06:58;;;;;;;1.98;0.57;;;40.60;23.40;;;;;;5050511;28;20033;-80
2022/07/29 11:09:24;;;;;;;1.50;0.60;;;40.20;23.50;;;;;;5043568;28;20025;-83
2022/07/29 11:11:49;;;;;;;0.40;0.30;;;40.10;22.50;;;;;;5049933;28;20044;-83
2022/07/29 11:14:17;;;;;;;0.63;0.40;;;40.00;22.60;;;;;;5049871;28;20017;-83
2022/07/29 11:17:03;;;;;;;1.35;0.38;;;40.00;21.30;;;;;;5048747;28;20021;-83
2022/07/29 11:19:29;;;;;;;2.00;0.50;;;40.30;21.30;;;;;;5043405;28;20060;-83
2022/07/29 11:21:55;;;;;;;2.03;0.50;;;40.30;21.90;;;;;;5049743;28;20127;-83
2022/07/29 11:24:27;;;;;;;2.75;0.45;;;38.90;21.30;;;;;;5049938;28;20036;-83
2022/07/29 11:27:16;;;;;;;1.23;0.30;;;39.10;22.10;;;;;;5050155;28;20096;-85
2022/07/29 11:30:00;;;;;;;1.00;0.22;;;40.20;23.90;;;;;;5049979;28;20025;-84
2022/07/29 11:32:36;;;;;;;0.93;0.32;;;41.10;20.60;;;;;;5048021;28;20044;-82
2022/07/29 11:35:23;;;;;;;1.80;0.50;;;40.90;20.90;;;;;;5062567;22;20037;-76
2022/07/29 11:38:20;;;;;;;1.40;0.43;;;39.70;20.60;;;;;;5033429;28;20022;-76
2022/07/29 11:41:17;;;;;;;0.93;0.30;;;37.40;21.30;;;;;;5030582;28;20033;-76
2022/07/29 11:43:53;;;;;;;0.57;0.30;;;38.70;22.20;;;;;;5028763;28;20030;-76
2022/07/29 11:46:45;;;;;;;1.65;0.30;;;39.50;22.20;;;;;;5030626;28;20047;-77
2022/07/29 11:49:12;;;;;;;1.20;0.50;;;40.90;22.30;;;;;;5033493;28;20510;-77
2022/07/29 11:51:38;;;;;;;1.65;0.50;;;41.70;21.60;;;;;;5032892;28;20033;-77
2022/07/29 11:54:05;;;;;;;3.15;0.30;;;42.50;21.10;;;;;;5033315;28;20025;-76
2022/07/29 11:56:37;;;;;;;2.00;0.55;;;43.00;21.20;;;;;;5033148;28;20509;-75
2022/07/29 11:59:05;;;;;;;0.95;0.30;;;42.60;20.30;;;;;;5027077;28;20044;-76
2022/07/29 12:01:32;;;;;;;2.08;0.60;;;41.00;19.90;;;;;;5033112;28;20025;-76
2022/07/29 12:04:08;;;;;;;1.35;0.20;;;40.20;21.20;;;;;;5032030;28;20087;-76
2022/07/29 12:06:34;;;;;;;2.38;0.60;;;40.90;20.90;;;;;;5027229;28;20195;-76
2022/07/29 12:09:00;;;;;;;0.55;0.30;;;42.00;22.20;;;;;;5027807;28;20017;-75
2022/07/29 12:11:26;;;;;;;2.22;0.75;;;41.60;22.50;;;;;;5028953;28;20450;-76
2022/07/29 12:13:53;;;;;;;1.50;0.30;;;41.30;22.60;;;;;;5033132;28;20017;-78
2022/07/29 12:16:22;;;;;;;3.75;0.60;;;41.50;23.30;;;;;;5032015;28;21328;-76
2022/07/29 12:19:05;;;;;;;0.98;0.52;;;41.40;22.10;;;;;;5031132;28;20026;-76
2022/07/29 12:21:48;;;;;;;0.85;0.45;;;41.00;22.50;;;;;;5032730;28;20033;-76
2022/07/29 12:24:15;;;;;;;2.67;0.73;;;40.20;22.70;;;;;;5032913;28;20021;-76
2022/07/29 12:26:57;;;;;;;1.20;0.60;;;40.30;24.10;;;;;;5032920;28;20030;-76
2022/07/29 12:29:24;;;;;;;2.78;0.60;;;40.00;22.60;;;;;;5026036;28;20104;-76
2022/07/29 12:31:54;;;;;;;1.95;0.40;;;38.90;23.60;;;;;;5032506;28;20040;-77
2022/07/29 12:34:22;;;;;;;1.65;0.55;;;39.20;23.40;;;;;;5055605;22;20077;-81
2022/07/29 12:36:48;;;;;;;3.25;0.80;;;39.60;24.00;;;;;;5030953;28;20037;-83
2022/07/29 12:39:16;;;;;;;2.03;0.50;;;39.50;23.10;;;;;;5032406;28;20528;-82
2022/07/29 12:41:41;;;;;;;1.77;0.52;;;40.30;24.00;;;;;;5031905;28;20018;-82
2022/07/29 12:44:07;;;;;;;1.65;0.50;;;41.20;22.70;;;;;;5028075;28;20372;-80
2022/07/29 12:46:33;;;;;;;0.73;0.40;;;41.70;21.70;;;;;;5013700;28;20014;-81
2022/07/29 12:48:59;;;;;;;1.02;0.52;;;42.10;23.10;;;;;;5019506;28;20033;-81
2022/07/29 12:51:31;;;;;;;2.28;0.63;;;41.00;22.90;;;;;;5017645;28;20430;-84
2022/07/29 12:54:10;;;;;;;0.95;0.60;;;40.40;23.20;;;;;;5013775;28;20104;-80
2022/07/29 12:56:39;;;;;;;2.25;0.80;;;40.50;23.10;;;;;;5013148;28;20021;-81
2022/07/29 12:59:22;;;;;;;1.27;0.55;;;41.10;23.10;;;;;;5018988;28;20026;-80
2022/07/29 13:01:50;;;;;;;1.05;0.50;;;42.10;22.50;;;;;;5010886;28;20037;-80
2022/07/29 13:04:29;;;;;;;2.30;0.73;;;42.50;23.50;;;;;;5017820;28;20017;-86